Time;durP1;ratioP1;P1;durP2;ratioP2;P2;SDS_P1;SDS_P2;PMS_P1;PMS_P2;Temp;Humidity;BMP_temperature;BMP_pressure;BME280_temperature;BME280_humidity;BME280_pressure;Samples;Min_cycle;Max_cycle;Signal;HPM_P1;HPM_P2
2023/03/24 00:01:44;;;;;;;91.43;55.67;;;8.10;99.90;;;;;;5006963;28;20050;-77
2023/03/24 00:04:13;;;;;;;82.50;52.58;;;8.10;1.00;;;;;;5014187;28;20038;-76
2023/03/24 00:06:40;;;;;;;86.97;57.03;;;8.00;1.00;;;;;;5014228;28;20073;-76
2023/03/24 00:09:08;;;;;;;73.18;46.03;;;7.90;1.00;;;;;;5020617;28;20113;-77
2023/03/24 00:11:37;;;;;;;69.53;41.60;;;7.90;1.00;;;;;;5019434;28;20118;-76
2023/03/24 00:14:05;;;;;;;66.47;37.78;;;7.90;87.40;;;;;;5020545;28;20072;-76
2023/03/24 00:16:33;;;;;;;67.82;40.17;;;7.90;99.90;;;;;;5020506;28;20033;-75
2023/03/24 00:19:01;;;;;;;69.25;39.92;;;7.90;99.90;;;;;;5006560;28;20532;-75
2023/03/24 00:21:28;;;;;;;77.85;42.22;;;7.90;95.00;;;;;;5002816;28;20045;-75
2023/03/24 00:23:58;;;;;;;89.65;50.85;;;7.90;84.10;;;;;;5007836;28;20057;-76
2023/03/24 00:26:27;;;;;;;93.38;53.35;;;7.80;99.90;;;;;;5019945;28;20046;-75
2023/03/24 00:28:57;;;;;;;87.88;49.13;;;7.80;35.70;;;;;;4997223;28;20042;-75
2023/03/24 00:31:25;;;;;;;66.68;38.08;;;7.70;1.20;;;;;;5000329;28;20629;-73
2023/03/24 00:33:53;;;;;;;59.55;35.90;;;7.70;99.90;;;;;;5001396;28;20034;-75
2023/03/24 00:36:23;;;;;;;63.08;37.28;;;7.70;99.90;;;;;;5022390;28;20061;-76
2023/03/24 00:38:51;;;;;;;60.03;38.58;;;7.60;99.90;;;;;;5016289;28;20066;-76
2023/03/24 00:41:18;;;;;;;67.97;40.88;;;7.60;99.90;;;;;;5003847;28;20057;-74
2023/03/24 00:43:46;;;;;;;69.18;42.30;;;7.60;99.90;;;;;;4999294;28;20038;-76
2023/03/24 00:46:27;;;;;;;63.47;36.95;;;7.60;99.90;;;;;;5018553;28;20050;-74
2023/03/24 00:49:00;;;;;;;55.63;35.55;;;7.50;1.00;;;;;;5007090;28;20493;-76
2023/03/24 00:51:30;;;;;;;59.58;35.72;;;7.50;1.00;;;;;;5007056;28;20053;-75
2023/03/24 00:53:58;;;;;;;53.53;34.58;;;7.50;1.00;;;;;;4998881;28;20239;-75
2023/03/24 00:56:28;;;;;;;62.00;36.88;;;7.40;1.00;;;;;;5001771;28;20046;-75
2023/03/24 00:58:57;;;;;;;54.80;32.97;;;7.40;99.90;;;;;;4999696;28;20035;-73
2023/03/24 01:01:28;;;;;;;56.53;33.63;;;7.40;1.00;;;;;;5028981;23;20045;-75
2023/03/24 01:03:56;;;;;;;56.80;32.33;;;7.40;1.00;;;;;;5021253;28;20049;-78
2023/03/24 01:06:24;;;;;;;56.40;30.90;;;7.40;1.00;;;;;;5019253;28;20041;-77
2023/03/24 01:08:52;;;;;;;52.08;30.77;;;7.40;1.00;;;;;;5017847;28;20516;-78
2023/03/24 01:11:23;;;;;;;50.33;29.35;;;7.30;1.00;;;;;;5019493;28;20042;-77
2023/03/24 01:13:52;;;;;;;50.80;30.38;;;7.30;1.00;;;;;;5018049;28;20408;-77
2023/03/24 01:16:20;;;;;;;57.00;32.95;;;7.30;1.00;;;;;;5018390;28;20051;-76
2023/03/24 01:18:49;;;;;;;62.85;36.30;;;7.30;1.00;;;;;;5017586;28;20042;-77
2023/03/24 01:21:17;;;;;;;67.60;37.03;;;7.30;34.00;;;;;;5020890;28;20041;-76
2023/03/24 01:23:44;;;;;;;59.85;34.60;;;7.20;1.00;;;;;;5016363;28;20042;-77
2023/03/24 01:26:12;;;;;;;51.53;32.10;;;7.20;99.90;;;;;;5017945;28;20464;-76
2023/03/24 01:28:42;;;;;;;61.78;36.15;;;7.20;99.90;;;;;;5018765;28;20088;-78
2023/03/24 01:31:10;;;;;;;61.20;37.28;;;7.20;1.00;;;;;;5020611;28;20042;-77
2023/03/24 01:33:38;;;;;;;52.13;32.25;;;7.20;1.00;;;;;;5022164;28;20054;-78
2023/03/24 01:36:08;;;;;;;47.92;29.27;;;7.10;1.00;;;;;;5024577;28;20682;-77
2023/03/24 01:38:36;;;;;;;53.80;29.35;;;7.20;99.90;;;;;;5024175;28;20413;-77
2023/03/24 01:41:06;;;;;;;46.33;29.45;;;7.10;1.00;;;;;;5020353;28;20077;-76
2023/03/24 01:43:35;;;;;;;46.85;29.38;;;7.10;1.00;;;;;;5018399;28;20061;-78
2023/03/24 01:46:18;;;;;;;51.22;29.75;;;7.10;1.00;;;;;;5016630;28;20060;-77
2023/03/24 01:48:51;;;;;;;67.15;42.30;;;7.10;1.00;;;;;;5017407;28;20080;-75
2023/03/24 01:51:23;;;;;;;46.40;30.20;;;7.10;99.90;;;;;;5016857;28;20053;-78
2023/03/24 01:53:58;;;;;;;49.60;31.58;;;7.00;99.90;;;;;;5017049;28;20121;-77
2023/03/24 01:56:26;;;;;;;45.60;29.00;;;7.00;99.90;;;;;;5017246;28;20060;-78
2023/03/24 01:58:59;;;;;;;40.22;27.63;;;6.90;1.00;;;;;;5016492;28;20038;-76
2023/03/24 02:01:45;;;;;;;48.80;27.92;;;6.90;74.40;;;;;;5016906;28;20049;-78
2023/03/24 02:04:41;;;;;;;47.35;32.42;;;6.90;1.00;;;;;;5017525;28;20045;-76
2023/03/24 02:07:14;;;;;;;47.72;32.15;;;6.80;1.00;;;;;;5032133;28;20103;-75
2023/03/24 02:09:41;;;;;;;54.22;35.65;;;6.80;1.00;;;;;;5016803;28;20426;-75
2023/03/24 02:12:09;;;;;;;48.25;32.13;;;6.80;99.90;;;;;;5017532;28;20054;-76
2023/03/24 02:14:37;;;;;;;49.45;29.15;;;6.80;1.00;;;;;;5013772;28;20056;-77
2023/03/24 02:17:24;;;;;;;43.03;25.83;;;6.80;99.90;;;;;;5015433;28;20049;-77
2023/03/24 02:20:37;;;;;;;35.97;23.08;;;6.80;1.00;;;;;;5018099;28;20033;-77
2023/03/24 02:23:46;;;;;;;39.03;22.83;;;6.80;1.00;;;;;;5012990;28;20069;-76
2023/03/24 02:26:45;;;;;;;45.88;25.70;;;6.70;99.90;;;;;;5016612;28;20042;-77
2023/03/24 02:30:03;;;;;;;39.85;23.50;;;6.70;1.00;;;;;;5018512;28;20129;-77
2023/03/24 02:33:12;;;;;;;40.10;23.45;;;6.60;99.90;;;;;;4972756;28;20690;-75
2023/03/24 02:36:23;;;;;;;36.00;20.67;;;6.50;99.90;;;;;;4961845;28;20050;-76
2023/03/24 02:39:31;;;;;;;35.55;22.15;;;6.50;99.90;;;;;;5007291;28;20053;-77
2023/03/24 02:42:06;;;;;;;39.30;23.83;;;6.50;99.90;;;;;;5015872;28;20046;-77
2023/03/24 02:44:42;;;;;;;38.78;22.80;;;6.40;99.90;;;;;;5017101;28;20137;-76
2023/03/24 02:47:15;;;;;;;41.60;22.90;;;6.30;1.00;;;;;;5020943;28;20073;-76
2023/03/24 02:49:48;;;;;;;36.30;22.83;;;6.20;1.00;;;;;;5021198;28;20496;-77
2023/03/24 02:52:22;;;;;;;36.70;22.10;;;6.20;1.00;;;;;;5021055;28;20046;-78
2023/03/24 02:55:00;;;;;;;39.75;24.25;;;6.10;99.90;;;;;;5019421;28;20050;-78
2023/03/24 02:57:34;;;;;;;56.47;27.30;;;6.20;99.90;;;;;;5020229;28;20085;-76
2023/03/24 03:00:12;;;;;;;43.00;24.90;;;6.20;99.90;;;;;;5020539;28;20077;-75
2023/03/24 03:03:13;;;;;;;38.85;23.60;;;6.30;99.90;;;;;;4941736;28;20047;-76
2023/03/24 03:05:47;;;;;;;38.05;22.55;;;6.20;1.00;;;;;;5018336;28;20132;-77
2023/03/24 03:08:19;;;;;;;38.83;23.08;;;6.30;43.20;;;;;;5016866;28;20042;-77
2023/03/24 03:10:51;;;;;;;36.60;23.13;;;6.30;1.00;;;;;;5019301;28;20034;-77
2023/03/24 03:13:26;;;;;;;37.78;23.83;;;6.30;1.00;;;;;;5043630;28;20045;-76
2023/03/24 03:15:58;;;;;;;43.95;25.50;;;6.30;1.00;;;;;;5018547;28;20045;-78
2023/03/24 03:18:31;;;;;;;45.30;27.95;;;6.30;1.00;;;;;;5022463;28;20083;-76
2023/03/24 03:21:03;;;;;;;44.30;28.10;;;6.30;1.00;;;;;;5024425;28;20053;-75
2023/03/24 03:23:35;;;;;;;46.00;26.92;;;6.30;1.00;;;;;;5023513;28;20038;-76
2023/03/24 03:26:11;;;;;;;42.03;27.50;;;6.20;1.00;;;;;;5024968;28;20046;-75
2023/03/24 03:28:48;;;;;;;45.28;28.25;;;6.20;99.90;;;;;;5029059;28;20118;-76
2023/03/24 03:31:22;;;;;;;41.72;26.73;;;6.10;99.90;;;;;;5033699;28;20106;-75
2023/03/24 03:33:56;;;;;;;43.88;27.05;;;6.10;1.00;;;;;;5024753;28;20050;-76
2023/03/24 03:36:29;;;;;;;46.15;29.90;;;6.00;1.00;;;;;;5023980;28;20128;-77
2023/03/24 03:39:03;;;;;;;43.70;28.80;;;5.90;1.00;;;;;;5021325;28;20041;-76
2023/03/24 03:41:33;;;;;;;39.63;26.23;;;5.90;1.00;;;;;;5024333;28;20049;-75
2023/03/24 03:44:01;;;;;;;36.85;23.55;;;5.90;1.00;;;;;;5032490;28;20041;-77
2023/03/24 03:46:29;;;;;;;39.10;23.40;;;6.00;1.00;;;;;;5022333;28;20061;-76
2023/03/24 03:49:01;;;;;;;37.50;23.65;;;6.00;1.00;;;;;;5051218;28;20045;-78
2023/03/24 03:51:28;;;;;;;38.10;25.20;;;6.00;1.00;;;;;;5027609;28;20053;-78
2023/03/24 03:54:00;;;;;;;35.55;24.45;;;5.90;1.00;;;;;;5029429;28;20033;-78
2023/03/24 03:56:31;;;;;;;34.08;24.75;;;5.90;1.00;;;;;;5029528;28;20061;-77
2023/03/24 03:59:28;;;;;;;33.63;23.67;;;5.90;1.00;;;;;;5023424;28;20048;-76
2023/03/24 04:01:57;;;;;;;31.80;22.05;;;5.90;1.00;;;;;;5025151;28;20060;-76
2023/03/24 04:05:04;;;;;;;30.13;20.13;;;5.90;1.00;;;;;;5024492;28;20072;-77
2023/03/24 04:07:47;;;;;;;30.70;22.38;;;5.80;1.00;;;;;;5011125;28;20113;-77
2023/03/24 04:10:50;;;;;;;31.88;22.38;;;5.80;1.00;;;;;;5023480;28;20114;-77
2023/03/24 04:13:28;;;;;;;33.53;22.63;;;5.80;1.00;;;;;;5025340;28;20046;-77
2023/03/24 04:16:39;;;;;;;32.83;21.52;;;5.80;1.00;;;;;;5006884;28;20521;-76
2023/03/24 04:19:24;;;;;;;30.05;20.13;;;5.80;1.00;;;;;;5022046;28;20050;-77
2023/03/24 04:22:04;;;;;;;27.08;18.85;;;5.70;1.00;;;;;;5017771;28;20500;-78
2023/03/24 04:24:43;;;;;;;29.88;18.75;;;5.70;1.00;;;;;;5017534;28;20489;-78
2023/03/24 04:27:26;;;;;;;26.25;17.63;;;5.70;1.00;;;;;;5018686;28;20049;-75
2023/03/24 04:30:05;;;;;;;29.20;17.17;;;5.70;1.00;;;;;;5015516;28;20057;-76
2023/03/24 04:32:41;;;;;;;28.90;18.00;;;5.70;1.00;;;;;;5017929;28;20111;-78
2023/03/24 04:35:19;;;;;;;46.13;27.48;;;5.70;1.00;;;;;;5017969;28;20038;-76
2023/03/24 04:38:21;;;;;;;50.17;26.58;;;5.70;1.00;;;;;;4951184;28;20079;-77
2023/03/24 04:40:56;;;;;;;41.25;26.25;;;5.70;99.90;;;;;;5021336;28;20424;-76
2023/03/24 04:43:35;;;;;;;42.80;26.02;;;5.70;99.90;;;;;;5022440;28;20119;-78
2023/03/24 04:46:05;;;;;;;39.05;23.92;;;5.70;99.90;;;;;;5023846;28;20041;-79
2023/03/24 04:48:54;;;;;;;36.90;23.52;;;5.70;99.90;;;;;;5032857;28;20092;-76
2023/03/24 04:51:29;;;;;;;39.20;22.75;;;5.70;99.90;;;;;;5021047;28;20067;-76
2023/03/24 04:54:23;;;;;;;35.40;22.35;;;5.70;99.90;;;;;;5021864;28;20037;-77
2023/03/24 04:57:00;;;;;;;34.40;23.20;;;5.70;99.90;;;;;;5014134;28;20045;-78
2023/03/24 04:59:30;;;;;;;36.42;24.10;;;5.70;99.90;;;;;;5019621;28;20493;-76
2023/03/24 05:01:58;;;;;;;42.50;25.40;;;5.70;99.90;;;;;;5020702;28;20056;-77
2023/03/24 05:04:35;;;;;;;40.65;26.65;;;5.70;99.90;;;;;;5017215;28;20048;-77
2023/03/24 05:07:16;;;;;;;38.67;25.63;;;5.70;99.90;;;;;;5016109;28;20045;-78
2023/03/24 05:09:56;;;;;;;44.67;27.83;;;5.70;99.90;;;;;;5032906;28;20132;-78
2023/03/24 05:12:24;;;;;;;42.45;26.30;;;5.70;99.90;;;;;;5034149;28;20445;-77
2023/03/24 05:15:13;;;;;;;41.67;25.80;;;5.70;99.90;;;;;;5017399;28;20107;-78
2023/03/24 05:17:43;;;;;;;46.33;25.38;;;5.70;99.90;;;;;;5016614;28;20509;-78
2023/03/24 05:20:14;;;;;;;37.25;24.83;;;5.80;99.90;;;;;;5018508;28;20073;-78
2023/03/24 05:22:48;;;;;;;39.35;24.20;;;5.80;99.90;;;;;;5017511;28;20050;-78
2023/03/24 05:25:17;;;;;;;34.17;22.17;;;5.90;99.90;;;;;;5019802;28;20041;-78
2023/03/24 05:27:44;;;;;;;32.40;20.52;;;5.90;99.90;;;;;;5018799;28;20048;-76
2023/03/24 05:30:25;;;;;;;36.55;23.85;;;6.00;99.90;;;;;;5016045;28;20410;-76
2023/03/24 05:33:00;;;;;;;41.40;24.60;;;6.00;99.90;;;;;;5017765;28;20512;-77
2023/03/24 05:35:29;;;;;;;32.70;20.42;;;6.10;99.90;;;;;;5017291;28;20042;-75
2023/03/24 05:37:57;;;;;;;36.65;21.67;;;6.20;99.90;;;;;;5017305;28;20068;-76
2023/03/24 05:40:24;;;;;;;31.13;20.20;;;6.30;99.90;;;;;;5016147;28;20041;-77
2023/03/24 05:43:11;;;;;;;31.23;21.27;;;6.40;99.90;;;;;;5018112;28;20140;-75
2023/03/24 05:45:42;;;;;;;33.60;21.23;;;6.60;99.90;;;;;;5018286;28;20045;-77
2023/03/24 05:48:11;;;;;;;36.67;23.90;;;6.70;99.90;;;;;;5033058;28;20050;-76
2023/03/24 05:51:01;;;;;;;36.80;22.58;;;6.80;9.30;;;;;;5017543;28;20552;-77
2023/03/24 05:53:28;;;;;;;40.53;23.88;;;7.00;1.00;;;;;;5018539;28;20057;-78
2023/03/24 05:56:27;;;;;;;40.33;24.15;;;7.20;1.00;;;;;;4939672;28;20404;-78
2023/03/24 05:59:00;;;;;;;41.45;24.90;;;7.50;1.00;;;;;;5018447;28;20119;-76
2023/03/24 06:01:49;;;;;;;39.92;23.23;;;7.70;1.00;;;;;;5001507;28;20060;-76
2023/03/24 06:04:44;;;;;;;35.20;21.73;;;8.00;1.00;;;;;;5033932;28;20400;-76
2023/03/24 06:07:17;;;;;;;32.42;19.02;;;8.30;1.00;;;;;;5018957;28;20044;-75
2023/03/24 06:09:49;;;;;;;35.50;22.58;;;8.60;1.00;;;;;;5018045;28;20045;-76
2023/03/24 06:12:20;;;;;;;39.88;22.98;;;8.90;1.00;;;;;;5018295;28;20497;-74
2023/03/24 06:14:55;;;;;;;37.58;22.25;;;9.20;1.00;;;;;;5016863;28;20045;-77
2023/03/24 06:17:23;;;;;;;33.85;21.65;;;9.50;1.00;;;;;;5020760;28;20041;-74
2023/03/24 06:20:02;;;;;;;38.35;21.95;;;9.80;1.00;;;;;;5020809;28;20046;-78
2023/03/24 06:22:58;;;;;;;38.10;22.17;;;10.10;1.00;;;;;;5020690;28;20045;-75
2023/03/24 06:25:28;;;;;;;47.97;25.13;;;10.40;1.00;;;;;;5019738;28;20100;-77
2023/03/24 06:28:13;;;;;;;48.40;24.20;;;10.50;1.00;;;;;;5020050;28;20539;-75
2023/03/24 06:30:45;;;;;;;36.15;23.55;;;10.70;1.00;;;;;;5020313;28;20048;-76
2023/03/24 06:33:17;;;;;;;39.83;23.52;;;10.90;1.00;;;;;;5021251;28;20046;-76
2023/03/24 06:35:46;;;;;;;41.40;23.90;;;11.20;1.00;;;;;;5020359;28;20046;-76
2023/03/24 06:38:18;;;;;;;33.53;22.77;;;11.40;1.00;;;;;;5022251;28;20049;-75
2023/03/24 06:40:46;;;;;;;37.08;23.67;;;11.70;1.00;;;;;;5020780;28;20079;-75
2023/03/24 06:43:14;;;;;;;42.13;23.60;;;11.70;1.00;;;;;;5019753;28;20045;-75
2023/03/24 06:45:44;;;;;;;41.38;22.85;;;11.90;1.00;;;;;;5020898;28;20517;-76
2023/03/24 06:48:18;;;;;;;37.33;23.17;;;12.10;1.00;;;;;;5044753;28;20050;-77
2023/03/24 06:50:46;;;;;;;77.60;26.35;;;12.30;1.00;;;;;;5021766;28;20053;-77
2023/03/24 06:53:16;;;;;;;41.05;23.17;;;12.30;99.90;;;;;;5019447;28;20076;-75
2023/03/24 06:55:46;;;;;;;43.15;21.92;;;12.40;99.90;;;;;;5025158;28;20049;-76
2023/03/24 06:58:14;;;;;;;31.10;19.60;;;12.50;99.90;;;;;;5024378;28;20056;-76
2023/03/24 07:00:58;;;;;;;36.22;20.83;;;12.70;99.90;;;;;;5019971;23;20529;-77
2023/03/24 07:03:37;;;;;;;41.10;18.88;;;13.00;99.90;;;;;;5000551;28;20049;-78
2023/03/24 07:06:17;;;;;;;36.53;19.83;;;13.00;99.90;;;;;;5000670;28;20113;-77
2023/03/24 07:08:50;;;;;;;34.10;18.80;;;12.90;99.90;;;;;;5012185;28;20408;-78
2023/03/24 07:11:18;;;;;;;29.20;17.92;;;13.00;99.90;;;;;;4989057;28;20518;-77
2023/03/24 07:13:52;;;;;;;32.35;16.73;;;13.00;99.90;;;;;;4981291;28;20047;-78
2023/03/24 07:16:20;;;;;;;29.67;17.30;;;13.10;99.90;;;;;;4983422;28;20069;-75
2023/03/24 07:18:53;;;;;;;26.98;16.42;;;13.40;99.90;;;;;;4982842;28;20050;-76
2023/03/24 07:21:21;;;;;;;26.63;17.40;;;13.60;99.90;;;;;;4980292;28;20074;-76
2023/03/24 07:23:52;;;;;;;39.95;21.10;;;13.80;99.90;;;;;;4980472;28;20066;-76
2023/03/24 07:26:22;;;;;;;44.15;24.27;;;14.00;99.90;;;;;;4981484;28;20519;-76
2023/03/24 07:28:58;;;;;;;29.98;19.42;;;14.30;99.90;;;;;;4982961;28;20446;-76
2023/03/24 07:31:36;;;;;;;40.63;23.55;;;14.50;99.90;;;;;;4978654;28;20129;-77
2023/03/24 07:34:07;;;;;;;31.52;18.42;;;14.80;99.90;;;;;;4978656;28;20042;-75
2023/03/24 07:36:37;;;;;;;26.58;17.92;;;15.10;99.90;;;;;;4981112;28;20050;-76
2023/03/24 07:39:08;;;;;;;30.27;16.70;;;15.30;99.90;;;;;;4981651;28;20632;-77
2023/03/24 07:41:37;;;;;;;29.75;17.38;;;15.60;99.90;;;;;;4984533;28;20053;-78
2023/03/24 07:44:15;;;;;;;30.42;17.52;;;15.70;99.90;;;;;;4986078;28;20118;-76
2023/03/24 07:46:50;;;;;;;29.15;16.63;;;15.90;99.90;;;;;;4983793;28;20038;-77
2023/03/24 07:49:17;;;;;;;25.05;17.55;;;16.10;99.90;;;;;;5005764;28;20050;-76
2023/03/24 07:51:48;;;;;;;27.77;15.80;;;16.30;99.90;;;;;;5003791;28;20157;-76
2023/03/24 07:54:24;;;;;;;23.42;14.95;;;16.40;99.90;;;;;;4991287;28;20050;-76
2023/03/24 07:56:53;;;;;;;22.15;12.27;;;16.50;99.90;;;;;;4981103;28;20074;-79
2023/03/24 07:59:20;;;;;;;18.27;11.77;;;16.60;99.90;;;;;;4984115;28;20104;-76
2023/03/24 08:01:50;;;;;;;24.05;12.25;;;16.80;99.90;;;;;;5002849;28;20046;-76
2023/03/24 08:04:23;;;;;;;20.42;11.68;;;16.90;99.90;;;;;;5009428;28;20100;-75
2023/03/24 08:07:12;;;;;;;21.35;11.55;;;17.20;99.90;;;;;;4998766;28;20070;-78
2023/03/24 08:09:41;;;;;;;18.30;12.02;;;17.50;99.90;;;;;;5003553;28;20302;-75
2023/03/24 08:12:09;;;;;;;16.00;10.35;;;17.60;99.90;;;;;;5003869;28;20034;-78
2023/03/24 08:14:37;;;;;;;17.58;9.55;;;17.80;99.90;;;;;;5004785;28;20060;-76
2023/03/24 08:17:04;;;;;;;15.88;10.85;;;18.00;99.90;;;;;;5006304;28;20038;-77
2023/03/24 08:19:32;;;;;;;19.27;10.48;;;18.20;99.90;;;;;;5007350;28;20129;-77
2023/03/24 08:21:59;;;;;;;15.60;10.43;;;18.40;99.90;;;;;;5009385;28;20046;-76
2023/03/24 08:24:26;;;;;;;15.98;8.27;;;18.60;99.90;;;;;;5004695;28;20039;-75
2023/03/24 08:26:57;;;;;;;14.40;10.07;;;18.70;99.90;;;;;;5026383;28;20054;-76
2023/03/24 08:29:25;;;;;;;16.27;10.52;;;18.90;99.90;;;;;;5003592;28;20105;-77
2023/03/24 08:31:52;;;;;;;18.80;9.70;;;19.00;99.90;;;;;;5001344;28;20042;-75
2023/03/24 08:34:19;;;;;;;13.23;8.35;;;19.20;99.90;;;;;;4999840;28;20154;-77
2023/03/24 08:36:47;;;;;;;10.32;7.53;;;19.40;99.90;;;;;;5003103;28;20486;-76
2023/03/24 08:39:15;;;;;;;13.38;8.45;;;19.50;99.90;;;;;;5002672;28;20062;-76
2023/03/24 08:41:42;;;;;;;15.77;9.02;;;19.70;99.90;;;;;;5008458;28;20061;-77
2023/03/24 08:44:11;;;;;;;14.30;8.75;;;19.70;99.90;;;;;;5001536;28;20065;-76
2023/03/24 08:46:39;;;;;;;12.95;8.05;;;19.80;99.90;;;;;;5000675;28;20177;-78
2023/03/24 08:49:07;;;;;;;12.52;8.02;;;20.00;99.90;;;;;;5001157;28;20096;-75
2023/03/24 08:51:34;;;;;;;12.10;7.55;;;20.10;99.90;;;;;;5001192;28;20057;-74
2023/03/24 08:54:02;;;;;;;12.35;7.10;;;20.20;99.90;;;;;;4998241;28;20493;-77
2023/03/24 08:56:34;;;;;;;15.80;8.73;;;20.30;99.90;;;;;;4999194;28;20096;-75
2023/03/24 08:59:03;;;;;;;12.13;7.68;;;20.30;99.90;;;;;;5001328;28;20042;-77
2023/03/24 09:01:32;;;;;;;15.05;7.85;;;20.40;99.90;;;;;;5001365;28;20077;-76
2023/03/24 09:04:01;;;;;;;11.30;7.78;;;20.40;99.90;;;;;;5005943;28;20088;-77
2023/03/24 09:06:28;;;;;;;11.32;7.57;;;20.50;99.90;;;;;;5013523;28;20061;-76
2023/03/24 09:08:56;;;;;;;11.95;6.90;;;20.70;99.90;;;;;;5006397;28;20133;-76
2023/03/24 09:11:24;;;;;;;8.55;5.93;;;20.70;99.90;;;;;;5000692;28;20042;-77
2023/03/24 09:13:51;;;;;;;8.82;6.38;;;20.60;99.90;;;;;;5000238;28;20149;-75
2023/03/24 09:16:19;;;;;;;9.80;6.50;;;20.70;99.90;;;;;;4999879;28;20039;-78
2023/03/24 09:18:48;;;;;;;11.40;6.85;;;20.80;99.90;;;;;;5002653;28;20090;-76
2023/03/24 09:21:16;;;;;;;9.50;6.22;;;20.90;99.90;;;;;;5027727;28;20056;-76
2023/03/24 09:23:43;;;;;;;12.32;7.63;;;21.00;99.90;;;;;;5004835;28;20045;-76
2023/03/24 09:26:10;;;;;;;12.52;7.43;;;21.10;99.90;;;;;;5014925;28;20085;-79
2023/03/24 09:28:38;;;;;;;12.10;8.57;;;21.20;99.90;;;;;;4999369;28;20046;-77
2023/03/24 09:31:06;;;;;;;15.23;10.48;;;21.30;99.90;;;;;;5000210;28;20045;-77
2023/03/24 09:33:34;;;;;;;10.52;7.85;;;21.30;99.90;;;;;;5000378;28;20490;-78
2023/03/24 09:36:04;;;;;;;14.65;8.27;;;21.30;99.90;;;;;;5000715;28;20038;-77
2023/03/24 09:38:33;;;;;;;10.13;7.35;;;21.40;99.90;;;;;;4998884;28;20412;-76
2023/03/24 09:41:03;;;;;;;14.07;7.22;;;21.50;99.90;;;;;;5001753;28;20034;-76
2023/03/24 09:43:38;;;;;;;9.75;6.57;;;21.70;99.90;;;;;;4997034;28;20121;-77
2023/03/24 09:46:10;;;;;;;14.25;8.27;;;21.80;99.90;;;;;;5021617;28;20054;-76
2023/03/24 09:48:42;;;;;;;11.13;8.23;;;21.90;99.90;;;;;;5000658;28;20072;-76
2023/03/24 09:51:15;;;;;;;13.80;9.07;;;22.00;99.90;;;;;;5001876;28;20053;-76
2023/03/24 09:53:49;;;;;;;11.82;7.18;;;22.10;99.90;;;;;;4998637;28;20456;-75
2023/03/24 09:56:18;;;;;;;11.20;7.90;;;22.20;99.90;;;;;;5007237;28;20046;-75
2023/03/24 09:58:50;;;;;;;8.70;6.20;;;22.30;99.90;;;;;;5002973;28;20358;-75
2023/03/24 10:01:18;;;;;;;8.38;6.20;;;22.30;99.90;;;;;;5005959;28;20132;-78
2023/03/24 10:03:47;;;;;;;10.48;7.05;;;22.40;99.90;;;;;;4998174;28;20073;-76
2023/03/24 10:06:21;;;;;;;14.63;5.40;;;22.40;99.90;;;;;;4998890;28;20045;-76
2023/03/24 10:08:55;;;;;;;8.55;5.85;;;22.40;99.90;;;;;;5000045;28;20788;-75
2023/03/24 10:11:30;;;;;;;10.32;5.88;;;22.50;99.90;;;;;;5000129;28;20038;-76
2023/03/24 10:14:14;;;;;;;9.25;5.70;;;22.60;99.90;;;;;;4999444;28;20038;-77
2023/03/24 10:16:49;;;;;;;9.48;5.63;;;22.60;99.90;;;;;;5011159;28;20053;-85
2023/03/24 10:19:27;;;;;;;9.38;5.65;;;22.70;99.90;;;;;;5008272;28;20046;-77
2023/03/24 10:22:06;;;;;;;9.70;5.47;;;22.80;99.90;;;;;;5002556;28;20034;-78
2023/03/24 10:24:43;;;;;;;11.63;7.75;;;22.80;99.90;;;;;;5001474;28;20072;-79
2023/03/24 10:27:19;;;;;;;11.88;6.47;;;22.80;99.90;;;;;;5002368;28;20057;-78
2023/03/24 10:29:49;;;;;;;13.38;7.30;;;22.90;99.90;;;;;;5001530;28;20133;-76
2023/03/24 10:32:21;;;;;;;31.00;20.77;;;22.90;99.90;;;;;;4999219;28;20042;-79
2023/03/24 10:34:54;;;;;;;135.57;102.28;;;23.00;99.90;;;;;;4998468;28;20438;-76
2023/03/24 10:37:23;;;;;;;21.10;15.65;;;23.00;99.90;;;;;;5000337;28;20676;-76
2023/03/24 10:39:51;;;;;;;12.88;6.95;;;23.00;99.90;;;;;;5000284;28;20050;-74
2023/03/24 10:42:27;;;;;;;11.30;6.93;;;22.90;99.90;;;;;;5014918;28;20038;-75
2023/03/24 10:44:55;;;;;;;11.38;6.30;;;22.90;99.90;;;;;;5009369;28;20042;-75
2023/03/24 10:47:26;;;;;;;11.00;4.72;;;23.00;99.90;;;;;;4999772;28;20112;-74
2023/03/24 10:49:56;;;;;;;10.57;5.47;;;23.00;99.90;;;;;;5000676;28;20057;-75
2023/03/24 10:52:25;;;;;;;7.10;4.30;;;23.10;99.90;;;;;;5000402;28;20049;-74
2023/03/24 10:54:58;;;;;;;8.98;4.75;;;23.20;99.90;;;;;;5000430;28;20058;-73
2023/03/24 10:57:27;;;;;;;10.40;7.30;;;23.30;99.90;;;;;;4998472;28;20041;-75
2023/03/24 10:59:58;;;;;;;7.85;4.57;;;23.30;99.90;;;;;;4999720;28;20117;-76
2023/03/24 11:02:29;;;;;;;7.28;3.28;;;23.40;99.90;;;;;;5002398;28;20042;-75
2023/03/24 11:05:01;;;;;;;9.55;4.18;;;23.40;99.90;;;;;;5008772;28;20157;-75
2023/03/24 11:07:35;;;;;;;9.95;4.47;;;23.40;99.90;;;;;;5015194;28;20507;-75
2023/03/24 11:10:07;;;;;;;11.25;4.03;;;23.40;99.90;;;;;;5004203;28;20125;-75
2023/03/24 11:12:37;;;;;;;6.45;4.03;;;23.40;99.90;;;;;;5003764;28;20045;-76
2023/03/24 11:15:16;;;;;;;8.77;5.28;;;23.40;99.90;;;;;;5004575;28;20073;-78
2023/03/24 11:17:44;;;;;;;8.02;3.70;;;23.40;99.90;;;;;;5003374;28;20080;-76
2023/03/24 11:20:19;;;;;;;10.75;6.28;;;23.50;99.90;;;;;;5001270;28;20061;-75
2023/03/24 11:22:59;;;;;;;6.63;3.43;;;23.60;99.90;;;;;;5001824;28;20096;-72
2023/03/24 11:25:28;;;;;;;7.60;3.20;;;23.60;99.90;;;;;;5001382;28;20101;-77
2023/03/24 11:28:04;;;;;;;17.83;14.43;;;23.70;99.90;;;;;;5002639;28;20129;-77
2023/03/24 11:30:35;;;;;;;9.25;5.55;;;23.70;99.90;;;;;;5003879;28;20413;-77
2023/03/24 11:33:04;;;;;;;4.72;3.03;;;23.60;99.90;;;;;;5003671;28;20042;-75
2023/03/24 11:35:32;;;;;;;5.70;3.85;;;23.60;99.90;;;;;;5000342;28;20046;-77
2023/03/24 11:38:06;;;;;;;10.48;5.13;;;23.60;99.90;;;;;;5000158;28;20050;-75
2023/03/24 11:40:35;;;;;;;10.35;6.10;;;23.60;99.90;;;;;;4999148;28;20060;-74
2023/03/24 11:43:04;;;;;;;8.48;6.00;;;23.70;99.90;;;;;;5013291;28;20467;-79
2023/03/24 11:45:38;;;;;;;6.35;4.35;;;23.70;99.90;;;;;;5004763;28;20031;-78
2023/03/24 11:48:13;;;;;;;6.50;4.10;;;23.70;99.90;;;;;;5003375;28;20121;-76
2023/03/24 11:50:41;;;;;;;9.23;4.63;;;23.70;99.90;;;;;;5003491;28;20065;-74
2023/03/24 11:53:17;;;;;;;6.55;4.53;;;23.80;99.90;;;;;;5001334;28;20053;-75
2023/03/24 11:55:52;;;;;;;6.63;4.50;;;23.80;99.90;;;;;;5006242;28;20046;-74
2023/03/24 11:58:28;;;;;;;7.80;3.72;;;23.80;99.90;;;;;;5003521;28;20133;-75
2023/03/24 12:01:00;;;;;;;10.10;3.25;;;23.80;99.90;;;;;;5003478;28;20586;-74
2023/03/24 12:03:55;;;;;;;3.53;2.20;;;23.90;99.90;;;;;;5009569;28;20042;-75
2023/03/24 12:06:40;;;;;;;6.38;5.05;;;23.90;99.90;;;;;;5010075;28;20417;-74
2023/03/24 12:09:21;;;;;;;8.75;6.18;;;24.00;99.90;;;;;;5007445;28;20110;-76
2023/03/24 12:12:17;;;;;;;5.78;4.10;;;24.10;99.90;;;;;;5005463;28;20050;-77
2023/03/24 12:15:01;;;;;;;5.88;4.13;;;24.20;99.90;;;;;;5006550;28;20047;-74
2023/03/24 12:17:38;;;;;;;6.20;4.03;;;24.20;99.90;;;;;;5014704;28;20042;-75
2023/03/24 12:20:27;;;;;;;7.15;4.60;;;24.10;99.90;;;;;;5012362;28;20042;-76
2023/03/24 12:23:01;;;;;;;6.35;2.83;;;24.10;99.90;;;;;;5008044;28;20066;-74
2023/03/24 12:25:42;;;;;;;4.50;3.05;;;24.10;99.90;;;;;;5001050;28;20057;-76
2023/03/24 12:28:51;;;;;;;8.25;5.28;;;24.10;99.90;;;;;;4999306;28;20069;-74
2023/03/24 12:31:41;;;;;;;6.85;4.80;;;24.20;99.90;;;;;;4978506;28;20074;-76
2023/03/24 12:34:32;;;;;;;4.88;2.80;;;24.10;99.90;;;;;;5002010;28;20477;-77
2023/03/24 12:37:04;;;;;;;7.22;4.00;;;24.20;99.90;;;;;;4994620;28;20106;-76
2023/03/24 12:39:36;;;;;;;12.68;9.95;;;24.20;99.90;;;;;;5001414;28;20120;-77
2023/03/24 12:42:11;;;;;;;12.43;4.13;;;24.30;99.90;;;;;;5000247;28;20041;-76
2023/03/24 12:45:13;;;;;;;6.40;2.88;;;24.30;99.90;;;;;;5002300;28;20109;-76
2023/03/24 12:48:03;;;;;;;7.75;5.00;;;24.50;99.90;;;;;;5024197;28;20141;-75
2023/03/24 12:50:39;;;;;;;4.50;2.47;;;24.40;99.90;;;;;;5001631;28;20042;-83
2023/03/24 12:53:22;;;;;;;7.55;3.08;;;24.40;99.90;;;;;;5026514;28;20593;-76
2023/03/24 12:55:56;;;;;;;6.18;3.20;;;24.50;99.90;;;;;;4999791;28;20042;-80
2023/03/24 12:58:34;;;;;;;7.28;3.47;;;24.60;99.90;;;;;;5003631;28;20469;-77
2023/03/24 13:01:07;;;;;;;14.32;9.40;;;24.60;99.90;;;;;;5018738;23;20229;-80
2023/03/24 13:03:40;;;;;;;7.40;4.20;;;24.70;99.90;;;;;;5030018;28;20076;-76
2023/03/24 13:06:16;;;;;;;7.82;5.45;;;24.70;99.90;;;;;;5028237;28;20049;-78
2023/03/24 13:08:49;;;;;;;6.55;4.15;;;24.70;99.90;;;;;;5015218;28;20041;-86
2023/03/24 13:11:20;;;;;;;4.80;3.28;;;24.80;99.90;;;;;;5008331;28;20058;-80
2023/03/24 13:13:49;;;;;;;5.82;3.78;;;24.80;99.90;;;;;;5016324;28;20076;-81
2023/03/24 13:16:21;;;;;;;7.75;3.03;;;24.80;99.90;;;;;;5027933;28;20291;-88
2023/03/24 13:18:52;;;;;;;8.68;3.70;;;24.70;99.90;;;;;;5028242;28;20060;-79